sensor_id;sensor_type;location;lat;lon;timestamp;pressure;altitude;pressure_sealevel;temperature;humidity
70921;BME280;58572;48.110;19.838;2023-08-24T00:01:44;97904.75;;;23.88;76.39
70921;BME280;58572;48.110;19.838;2023-08-24T00:04:11;97938.53;;;24.13;76.19
70921;BME280;58572;48.110;19.838;2023-08-24T00:06:38;97932.75;;;24.26;75.33
70921;BME280;58572;48.110;19.838;2023-08-24T00:09:07;97928.91;;;24.07;76.12
70921;BME280;58572;48.110;19.838;2023-08-24T00:11:34;97936.94;;;23.70;79.10
70921;BME280;58572;48.110;19.838;2023-08-24T00:14:01;97943.59;;;23.66;78.98
70921;BME280;58572;48.110;19.838;2023-08-24T00:16:28;97943.91;;;23.22;81.76
70921;BME280;58572;48.110;19.838;2023-08-24T00:18:55;97938.22;;;22.13;88.70
70921;BME280;58572;48.110;19.838;2023-08-24T00:21:22;97932.09;;;22.55;85.34
70921;BME280;58572;48.110;19.838;2023-08-24T00:23:50;97929.25;;;22.86;84.90
70921;BME280;58572;48.110;19.838;2023-08-24T00:26:19;97927.22;;;22.83;84.68
70921;BME280;58572;48.110;19.838;2023-08-24T00:28:47;97930.75;;;23.19;82.13
70921;BME280;58572;48.110;19.838;2023-08-24T00:31:15;97930.16;;;23.68;78.72
70921;BME280;58572;48.110;19.838;2023-08-24T00:33:43;97934.19;;;23.93;76.70
70921;BME280;58572;48.110;19.838;2023-08-24T00:36:10;97934.44;;;24.07;75.95
70921;BME280;58572;48.110;19.838;2023-08-24T00:38:38;97933.72;;;24.10;75.95
70921;BME280;58572;48.110;19.838;2023-08-24T00:41:05;97931.16;;;24.25;75.27
70921;BME280;58572;48.110;19.838;2023-08-24T00:43:33;97927.94;;;24.45;74.06
70921;BME280;58572;48.110;19.838;2023-08-24T00:46:02;97899.19;;;24.11;74.36
70921;BME280;58572;48.110;19.838;2023-08-24T00:48:31;97934.41;;;24.53;73.29
70921;BME280;58572;48.110;19.838;2023-08-24T00:51:00;97932.81;;;24.52;73.17
70921;BME280;58572;48.110;19.838;2023-08-24T00:53:29;97929.44;;;24.39;73.83
70921;BME280;58572;48.110;19.838;2023-08-24T00:55:56;97929.31;;;24.32;74.42
70921;BME280;58572;48.110;19.838;2023-08-24T00:58:26;97922.34;;;24.42;73.44
70921;BME280;58572;48.110;19.838;2023-08-24T01:00:56;97925.22;;;24.49;72.79
70921;BME280;58572;48.110;19.838;2023-08-24T01:03:24;97918.00;;;24.22;74.39
70921;BME280;58572;48.110;19.838;2023-08-24T01:05:51;97919.47;;;23.70;78.05
70921;BME280;58572;48.110;19.838;2023-08-24T01:08:18;97915.41;;;23.64;78.60
70921;BME280;58572;48.110;19.838;2023-08-24T01:10:51;97918.31;;;23.71;77.54
70921;BME280;58572;48.110;19.838;2023-08-24T01:13:27;97911.41;;;23.22;79.97
70921;BME280;58572;48.110;19.838;2023-08-24T01:16:02;97914.13;;;23.00;83.05
70921;BME280;58572;48.110;19.838;2023-08-24T01:18:31;97907.38;;;23.39;79.77
70921;BME280;58572;48.110;19.838;2023-08-24T01:21:02;97912.31;;;23.69;78.13
70921;BME280;58572;48.110;19.838;2023-08-24T01:23:36;97914.44;;;24.21;75.39
70921;BME280;58572;48.110;19.838;2023-08-24T01:26:14;97918.16;;;24.29;74.31
70921;BME280;58572;48.110;19.838;2023-08-24T01:28:44;97921.78;;;24.33;74.62
70921;BME280;58572;48.110;19.838;2023-08-24T01:31:13;97918.31;;;24.39;73.60
70921;BME280;58572;48.110;19.838;2023-08-24T01:33:40;97923.78;;;24.32;73.84
70921;BME280;58572;48.110;19.838;2023-08-24T01:36:08;97921.22;;;24.24;74.16
70921;BME280;58572;48.110;19.838;2023-08-24T01:38:36;97928.31;;;24.21;73.90
70921;BME280;58572;48.110;19.838;2023-08-24T01:41:09;97927.53;;;24.20;73.98
70921;BME280;58572;48.110;19.838;2023-08-24T01:43:40;97935.75;;;24.13;74.20
70921;BME280;58572;48.110;19.838;2023-08-24T01:46:08;97932.09;;;24.09;74.29
70921;BME280;58572;48.110;19.838;2023-08-24T01:48:37;97897.63;;;23.91;74.06
70921;BME280;58572;48.110;19.838;2023-08-24T01:51:05;97927.28;;;24.06;74.20
70921;BME280;58572;48.110;19.838;2023-08-24T01:53:34;97928.50;;;23.86;75.29
70921;BME280;58572;48.110;19.838;2023-08-24T01:56:08;97930.16;;;23.91;75.40
70921;BME280;58572;48.110;19.838;2023-08-24T01:58:35;97932.56;;;23.92;75.13
70921;BME280;58572;48.110;19.838;2023-08-24T02:01:03;97929.75;;;24.11;73.96
70921;BME280;58572;48.110;19.838;2023-08-24T02:03:31;97933.50;;;24.23;73.39
70921;BME280;58572;48.110;19.838;2023-08-24T02:05:58;97933.81;;;24.17;73.44
70921;BME280;58572;48.110;19.838;2023-08-24T02:08:25;97929.19;;;24.25;73.36
70921;BME280;58572;48.110;19.838;2023-08-24T02:10:52;97928.66;;;23.93;75.09
70921;BME280;58572;48.110;19.838;2023-08-24T02:13:19;97937.66;;;22.74;81.68
70921;BME280;58572;48.110;19.838;2023-08-24T02:15:46;97935.97;;;22.85;81.30
70921;BME280;58572;48.110;19.838;2023-08-24T02:18:15;97864.53;;;23.37;76.15
70921;BME280;58572;48.110;19.838;2023-08-24T02:20:42;97927.84;;;24.15;73.99
70921;BME280;58572;48.110;19.838;2023-08-24T02:23:09;97928.72;;;23.16;79.94
70921;BME280;58572;48.110;19.838;2023-08-24T02:25:41;97920.16;;;23.44;77.44
70921;BME280;58572;48.110;19.838;2023-08-24T02:28:09;97921.09;;;23.71;76.34
70921;BME280;58572;48.110;19.838;2023-08-24T02:30:37;97922.59;;;24.10;74.14
70921;BME280;58572;48.110;19.838;2023-08-24T02:33:05;97913.06;;;23.88;74.99
70921;BME280;58572;48.110;19.838;2023-08-24T02:35:34;97914.56;;;24.05;74.00
70921;BME280;58572;48.110;19.838;2023-08-24T02:38:02;97918.66;;;24.11;73.55
70921;BME280;58572;48.110;19.838;2023-08-24T02:40:30;97913.72;;;24.01;74.01
70921;BME280;58572;48.110;19.838;2023-08-24T02:42:57;97919.84;;;23.91;74.56
70921;BME280;58572;48.110;19.838;2023-08-24T02:45:24;97920.09;;;23.82;74.93
70921;BME280;58572;48.110;19.838;2023-08-24T02:47:51;97917.88;;;23.69;75.33
70921;BME280;58572;48.110;19.838;2023-08-24T02:50:18;97913.94;;;23.70;75.55
70921;BME280;58572;48.110;19.838;2023-08-24T02:52:47;97923.13;;;23.74;75.18
70921;BME280;58572;48.110;19.838;2023-08-24T02:55:15;97916.66;;;23.89;74.22
70921;BME280;58572;48.110;19.838;2023-08-24T02:57:42;97916.53;;;23.82;74.37
70921;BME280;58572;48.110;19.838;2023-08-24T03:00:10;97914.88;;;24.00;73.51
70921;BME280;58572;48.110;19.838;2023-08-24T03:02:39;97917.38;;;23.86;73.96
70921;BME280;58572;48.110;19.838;2023-08-24T03:05:07;97914.00;;;23.73;74.34
70921;BME280;58572;48.110;19.838;2023-08-24T03:07:34;97922.63;;;23.68;74.73
70921;BME280;58572;48.110;19.838;2023-08-24T03:10:03;97914.16;;;23.61;75.14
70921;BME280;58572;48.110;19.838;2023-08-24T03:12:30;97912.56;;;23.83;74.06
70921;BME280;58572;48.110;19.838;2023-08-24T03:14:57;97924.41;;;23.80;73.69
70921;BME280;58572;48.110;19.838;2023-08-24T03:17:25;97923.72;;;23.44;75.39
70921;BME280;58572;48.110;19.838;2023-08-24T03:19:52;97925.28;;;23.42;75.81
70921;BME280;58572;48.110;19.838;2023-08-24T03:22:20;97917.69;;;23.58;74.98
70921;BME280;58572;48.110;19.838;2023-08-24T03:24:47;97915.72;;;23.39;75.67
70921;BME280;58572;48.110;19.838;2023-08-24T03:27:15;97919.66;;;23.38;75.70
70921;BME280;58572;48.110;19.838;2023-08-24T03:29:42;97921.97;;;22.62;81.37
70921;BME280;58572;48.110;19.838;2023-08-24T03:32:10;97923.38;;;22.37;82.20
70921;BME280;58572;48.110;19.838;2023-08-24T03:34:37;97920.75;;;22.95;78.69
70921;BME280;58572;48.110;19.838;2023-08-24T03:37:05;97914.00;;;22.61;82.29
70921;BME280;58572;48.110;19.838;2023-08-24T03:39:33;97925.72;;;21.76;88.57
70921;BME280;58572;48.110;19.838;2023-08-24T03:42:00;97927.59;;;21.72;89.21
70921;BME280;58572;48.110;19.838;2023-08-24T03:44:28;97919.41;;;22.54;82.00
70921;BME280;58572;48.110;19.838;2023-08-24T03:46:56;97916.16;;;23.22;77.70
70921;BME280;58572;48.110;19.838;2023-08-24T03:49:23;97921.75;;;23.45;76.31
70921;BME280;58572;48.110;19.838;2023-08-24T03:51:51;97919.72;;;23.61;75.08
70921;BME280;58572;48.110;19.838;2023-08-24T03:54:18;97924.03;;;23.39;76.21
70921;BME280;58572;48.110;19.838;2023-08-24T03:56:46;97925.34;;;23.45;75.34
70921;BME280;58572;48.110;19.838;2023-08-24T03:59:13;97930.22;;;23.52;75.33
70921;BME280;58572;48.110;19.838;2023-08-24T04:01:41;97925.06;;;23.31;76.08
70921;BME280;58572;48.110;19.838;2023-08-24T04:04:08;97930.47;;;23.24;76.56
70921;BME280;58572;48.110;19.838;2023-08-24T04:06:35;97924.75;;;23.36;75.95
70921;BME280;58572;48.110;19.838;2023-08-24T04:09:04;97932.63;;;23.53;74.96
70921;BME280;58572;48.110;19.838;2023-08-24T04:11:31;97933.53;;;23.58;74.58
70921;BME280;58572;48.110;19.838;2023-08-24T04:13:59;97936.56;;;23.52;74.61
70921;BME280;58572;48.110;19.838;2023-08-24T04:16:26;97924.88;;;22.85;76.93
70921;BME280;58572;48.110;19.838;2023-08-24T04:18:55;97940.00;;;22.72;78.54
70921;BME280;58572;48.110;19.838;2023-08-24T04:21:22;97924.34;;;23.15;76.53
70921;BME280;58572;48.110;19.838;2023-08-24T04:23:49;97922.13;;;23.43;74.81
70921;BME280;58572;48.110;19.838;2023-08-24T04:26:16;97925.84;;;23.51;74.58
70921;BME280;58572;48.110;19.838;2023-08-24T04:28:43;97926.38;;;23.56;74.17
70921;BME280;58572;48.110;19.838;2023-08-24T04:31:10;97928.19;;;23.49;74.45
70921;BME280;58572;48.110;19.838;2023-08-24T04:33:37;97923.88;;;23.51;74.31
70921;BME280;58572;48.110;19.838;2023-08-24T04:36:06;97925.78;;;23.47;74.56
70921;BME280;58572;48.110;19.838;2023-08-24T04:38:34;97929.84;;;23.53;74.33
70921;BME280;58572;48.110;19.838;2023-08-24T04:41:02;97926.06;;;23.62;73.65
70921;BME280;58572;48.110;19.838;2023-08-24T04:43:33;97919.78;;;23.45;74.53
70921;BME280;58572;48.110;19.838;2023-08-24T04:46:02;97925.63;;;23.60;74.07
70921;BME280;58572;48.110;19.838;2023-08-24T04:48:29;97919.84;;;23.49;74.31
70921;BME280;58572;48.110;19.838;2023-08-24T04:50:59;97913.09;;;23.27;75.31
70921;BME280;58572;48.110;19.838;2023-08-24T04:53:28;97904.19;;;23.18;75.49
70921;BME280;58572;48.110;19.838;2023-08-24T04:55:56;97877.75;;;23.24;74.48
70921;BME280;58572;48.110;19.838;2023-08-24T04:58:23;97930.94;;;23.49;74.45
70921;BME280;58572;48.110;19.838;2023-08-24T05:00:51;97926.66;;;23.32;75.15
70921;BME280;58572;48.110;19.838;2023-08-24T05:03:18;97938.28;;;23.38;75.17
70921;BME280;58572;48.110;19.838;2023-08-24T05:05:47;97913.50;;;23.48;73.83
70921;BME280;58572;48.110;19.838;2023-08-24T05:08:14;97946.63;;;23.80;73.19
70921;BME280;58572;48.110;19.838;2023-08-24T05:10:43;97940.78;;;23.85;72.91
70921;BME280;58572;48.110;19.838;2023-08-24T05:13:11;97944.16;;;23.75;73.21
70921;BME280;58572;48.110;19.838;2023-08-24T05:15:38;97948.53;;;23.76;73.68
70921;BME280;58572;48.110;19.838;2023-08-24T05:18:05;97944.47;;;23.93;72.86
70921;BME280;58572;48.110;19.838;2023-08-24T05:20:33;97951.56;;;23.90;72.83
70921;BME280;58572;48.110;19.838;2023-08-24T05:23:00;97954.25;;;24.06;72.31
70921;BME280;58572;48.110;19.838;2023-08-24T05:25:27;97952.25;;;23.83;73.19
70921;BME280;58572;48.110;19.838;2023-08-24T05:27:56;97940.75;;;23.43;75.09
70921;BME280;58572;48.110;19.838;2023-08-24T05:30:23;97951.47;;;23.64;74.29
70921;BME280;58572;48.110;19.838;2023-08-24T05:32:54;97953.34;;;23.79;73.77
70921;BME280;58572;48.110;19.838;2023-08-24T05:35:22;97957.16;;;23.51;74.89
70921;BME280;58572;48.110;19.838;2023-08-24T05:37:49;97963.59;;;23.17;76.60
70921;BME280;58572;48.110;19.838;2023-08-24T05:40:17;97944.91;;;23.33;75.79
70921;BME280;58572;48.110;19.838;2023-08-24T05:42:44;97957.16;;;23.71;74.34
70921;BME280;58572;48.110;19.838;2023-08-24T05:45:12;97957.34;;;23.59;74.91
70921;BME280;58572;48.110;19.838;2023-08-24T05:47:40;97957.59;;;23.73;74.29
70921;BME280;58572;48.110;19.838;2023-08-24T05:50:07;97959.34;;;23.81;74.11
70921;BME280;58572;48.110;19.838;2023-08-24T05:52:34;97953.66;;;23.74;74.18
70921;BME280;58572;48.110;19.838;2023-08-24T05:55:01;97955.94;;;23.68;74.54
70921;BME280;58572;48.110;19.838;2023-08-24T05:57:29;97950.44;;;23.72;74.57
70921;BME280;58572;48.110;19.838;2023-08-24T05:59:56;97946.97;;;23.55;75.61
70921;BME280;58572;48.110;19.838;2023-08-24T06:02:25;97940.09;;;23.30;80.18
70921;BME280;58572;48.110;19.838;2023-08-24T06:04:52;97949.59;;;23.29;79.49
70921;BME280;58572;48.110;19.838;2023-08-24T06:07:19;97934.44;;;24.07;74.74
70921;BME280;58572;48.110;19.838;2023-08-24T06:09:47;97936.50;;;24.33;72.95
70921;BME280;58572;48.110;19.838;2023-08-24T06:12:14;97942.59;;;24.19;73.61
70921;BME280;58572;48.110;19.838;2023-08-24T06:14:41;97934.09;;;24.32;73.53
70921;BME280;58572;48.110;19.838;2023-08-24T06:17:08;97946.28;;;24.50;76.91
70921;BME280;58572;48.110;19.838;2023-08-24T06:19:36;97947.88;;;24.51;78.63
70921;BME280;58572;48.110;19.838;2023-08-24T06:22:04;97951.34;;;24.22;80.74
70921;BME280;58572;48.110;19.838;2023-08-24T06:24:31;97950.25;;;24.49;80.47
70921;BME280;58572;48.110;19.838;2023-08-24T06:26:58;97951.94;;;24.57;80.32
70921;BME280;58572;48.110;19.838;2023-08-24T06:29:27;97950.22;;;24.98;76.93
70921;BME280;58572;48.110;19.838;2023-08-24T06:31:54;97952.91;;;24.68;77.30
70921;BME280;58572;48.110;19.838;2023-08-24T06:34:22;97954.50;;;24.69;77.96
70921;BME280;58572;48.110;19.838;2023-08-24T06:36:53;97947.88;;;24.77;79.45
70921;BME280;58572;48.110;19.838;2023-08-24T06:39:21;97946.16;;;24.43;82.16
70921;BME280;58572;48.110;19.838;2023-08-24T06:41:50;97944.88;;;24.37;82.13
70921;BME280;58572;48.110;19.838;2023-08-24T06:44:17;97938.53;;;24.13;83.44
70921;BME280;58572;48.110;19.838;2023-08-24T06:46:45;97939.38;;;24.17;81.92
70921;BME280;58572;48.110;19.838;2023-08-24T06:49:11;97930.50;;;24.58;78.01
70921;BME280;58572;48.110;19.838;2023-08-24T06:51:38;97943.28;;;24.36;81.50
70921;BME280;58572;48.110;19.838;2023-08-24T06:54:08;97950.13;;;23.96;84.05
70921;BME280;58572;48.110;19.838;2023-08-24T06:56:35;97945.97;;;23.86;85.04
70921;BME280;58572;48.110;19.838;2023-08-24T06:59:02;97947.34;;;23.96;84.24
70921;BME280;58572;48.110;19.838;2023-08-24T07:01:29;97954.31;;;24.09;81.51
70921;BME280;58572;48.110;19.838;2023-08-24T07:03:57;97954.94;;;24.45;79.30
70921;BME280;58572;48.110;19.838;2023-08-24T07:06:24;97946.69;;;24.78;76.85
70921;BME280;58572;48.110;19.838;2023-08-24T07:08:51;97949.59;;;23.91;82.93
70921;BME280;58572;48.110;19.838;2023-08-24T07:11:20;97938.38;;;24.52;78.65
70921;BME280;58572;48.110;19.838;2023-08-24T07:13:49;97948.53;;;24.41;80.19
70921;BME280;58572;48.110;19.838;2023-08-24T07:16:16;97951.31;;;24.41;80.25
70921;BME280;58572;48.110;19.838;2023-08-24T07:18:43;97957.81;;;24.78;79.99
70921;BME280;58572;48.110;19.838;2023-08-24T07:21:10;97951.59;;;25.11;76.71
70921;BME280;58572;48.110;19.838;2023-08-24T07:23:37;97952.38;;;25.12;75.72
70921;BME280;58572;48.110;19.838;2023-08-24T07:26:05;97959.31;;;25.25;76.08
70921;BME280;58572;48.110;19.838;2023-08-24T07:28:35;97952.81;;;24.61;76.87
70921;BME280;58572;48.110;19.838;2023-08-24T07:31:07;97954.63;;;24.76;76.42
70921;BME280;58572;48.110;19.838;2023-08-24T07:33:35;97957.38;;;24.99;78.71
70921;BME280;58572;48.110;19.838;2023-08-24T07:36:04;97959.31;;;25.59;74.85
70921;BME280;58572;48.110;19.838;2023-08-24T07:38:32;97964.09;;;25.95;74.86
70921;BME280;58572;48.110;19.838;2023-08-24T07:40:59;97930.00;;;26.05;71.46
70921;BME280;58572;48.110;19.838;2023-08-24T07:43:26;97961.25;;;25.88;72.31
70921;BME280;58572;48.110;19.838;2023-08-24T07:45:57;97961.53;;;25.76;73.02
70921;BME280;58572;48.110;19.838;2023-08-24T07:48:25;97967.66;;;25.59;73.15
70921;BME280;58572;48.110;19.838;2023-08-24T07:50:51;97962.31;;;25.76;72.47
70921;BME280;58572;48.110;19.838;2023-08-24T07:53:19;97950.06;;;25.51;72.79
70921;BME280;58572;48.110;19.838;2023-08-24T07:55:46;97964.94;;;25.99;72.16
70921;BME280;58572;48.110;19.838;2023-08-24T07:58:13;97955.22;;;25.49;75.83
70921;BME280;58572;48.110;19.838;2023-08-24T08:00:40;97976.19;;;25.39;75.27
70921;BME280;58572;48.110;19.838;2023-08-24T08:03:09;97976.63;;;25.75;74.63
70921;BME280;58572;48.110;19.838;2023-08-24T08:05:36;97979.41;;;26.12;71.90
70921;BME280;58572;48.110;19.838;2023-08-24T08:08:03;97973.38;;;26.47;69.47
70921;BME280;58572;48.110;19.838;2023-08-24T08:10:31;97971.72;;;26.39;70.79
70921;BME280;58572;48.110;19.838;2023-08-24T08:12:58;97983.28;;;24.80;76.69
70921;BME280;58572;48.110;19.838;2023-08-24T08:15:25;97984.19;;;25.44;75.13
70921;BME280;58572;48.110;19.838;2023-08-24T08:17:52;97975.94;;;25.52;74.29
70921;BME280;58572;48.110;19.838;2023-08-24T08:20:21;97985.22;;;25.63;74.34
70921;BME280;58572;48.110;19.838;2023-08-24T08:22:48;97986.91;;;26.04;72.56
70921;BME280;58572;48.110;19.838;2023-08-24T08:25:16;97984.56;;;25.73;74.41
70921;BME280;58572;48.110;19.838;2023-08-24T08:27:44;97988.41;;;24.52;80.09
70921;BME280;58572;48.110;19.838;2023-08-24T08:30:11;97993.16;;;25.01;79.53
70921;BME280;58572;48.110;19.838;2023-08-24T08:32:39;97995.16;;;24.77;79.24
70921;BME280;58572;48.110;19.838;2023-08-24T08:35:06;97992.84;;;25.36;76.18
70921;BME280;58572;48.110;19.838;2023-08-24T08:37:34;97987.56;;;25.27;77.85
70921;BME280;58572;48.110;19.838;2023-08-24T08:40:03;97988.13;;;25.10;78.92
70921;BME280;58572;48.110;19.838;2023-08-24T08:42:31;97978.34;;;24.70;79.78
70921;BME280;58572;48.110;19.838;2023-08-24T08:45:00;97995.63;;;25.06;79.79
70921;BME280;58572;48.110;19.838;2023-08-24T08:47:29;97995.41;;;24.95;80.79
70921;BME280;58572;48.110;19.838;2023-08-24T08:49:58;97997.88;;;25.57;78.60
70921;BME280;58572;48.110;19.838;2023-08-24T08:52:26;97987.84;;;25.19;81.21
70921;BME280;58572;48.110;19.838;2023-08-24T08:54:55;97982.03;;;25.01;80.04
70921;BME280;58572;48.110;19.838;2023-08-24T08:57:25;97981.75;;;26.06;76.19
70921;BME280;58572;48.110;19.838;2023-08-24T08:59:52;97986.94;;;26.08;76.36
70921;BME280;58572;48.110;19.838;2023-08-24T09:02:20;97987.63;;;25.64;78.57
70921;BME280;58572;48.110;19.838;2023-08-24T09:04:50;97945.28;;;26.22;75.70
70921;BME280;58572;48.110;19.838;2023-08-24T09:07:18;97977.63;;;26.82;74.13
70921;BME280;58572;48.110;19.838;2023-08-24T09:09:46;97979.84;;;26.58;74.48
70921;BME280;58572;48.110;19.838;2023-08-24T09:12:15;97988.19;;;26.14;76.20
70921;BME280;58572;48.110;19.838;2023-08-24T09:14:42;97968.13;;;26.97;73.66
70921;BME280;58572;48.110;19.838;2023-08-24T09:17:09;97978.28;;;26.64;73.88
70921;BME280;58572;48.110;19.838;2023-08-24T09:19:36;97923.47;;;26.90;74.16
70921;BME280;58572;48.110;19.838;2023-08-24T09:22:04;97922.06;;;27.17;69.52
70921;BME280;58572;48.110;19.838;2023-08-24T09:24:33;97983.97;;;26.31;73.83
70921;BME280;58572;48.110;19.838;2023-08-24T09:27:17;97986.31;;;25.88;74.87
70921;BME280;58572;48.110;19.838;2023-08-24T09:29:50;97974.34;;;25.84;74.11
70921;BME280;58572;48.110;19.838;2023-08-24T09:32:27;97975.59;;;25.90;77.15
70921;BME280;58572;48.110;19.838;2023-08-24T09:35:06;97954.38;;;26.16;74.83
70921;BME280;58572;48.110;19.838;2023-08-24T09:37:40;97959.94;;;27.18;75.55
70921;BME280;58572;48.110;19.838;2023-08-24T09:40:14;97951.44;;;28.05;70.00
70921;BME280;58572;48.110;19.838;2023-08-24T09:42:49;97949.91;;;28.50;64.24
70921;BME280;58572;48.110;19.838;2023-08-24T09:45:21;97940.44;;;29.67;61.37
70921;BME280;58572;48.110;19.838;2023-08-24T09:47:52;97948.09;;;30.29;59.69
70921;BME280;58572;48.110;19.838;2023-08-24T09:50:23;97948.66;;;29.01;58.72
70921;BME280;58572;48.110;19.838;2023-08-24T09:53:00;97948.75;;;29.81;57.73
70921;BME280;58572;48.110;19.838;2023-08-24T09:55:37;97810.63;;;29.81;58.03
70921;BME280;58572;48.110;19.838;2023-08-24T09:58:15;97951.25;;;29.65;57.51
70921;BME280;58572;48.110;19.838;2023-08-24T10:00:47;97948.63;;;29.12;58.31
70921;BME280;58572;48.110;19.838;2023-08-24T10:03:21;97947.91;;;28.90;65.12
70921;BME280;58572;48.110;19.838;2023-08-24T10:05:55;97940.69;;;28.96;67.44
70921;BME280;58572;48.110;19.838;2023-08-24T10:08:32;97935.75;;;29.36;59.27
70921;BME280;58572;48.110;19.838;2023-08-24T10:11:07;97941.44;;;29.14;66.22
70921;BME280;58572;48.110;19.838;2023-08-24T10:13:49;97943.50;;;28.78;64.67
70921;BME280;58572;48.110;19.838;2023-08-24T10:16:24;97938.41;;;29.71;61.21
70921;BME280;58572;48.110;19.838;2023-08-24T10:18:55;97898.53;;;29.46;60.84
70921;BME280;58572;48.110;19.838;2023-08-24T10:21:29;97946.03;;;30.37;57.78
70921;BME280;58572;48.110;19.838;2023-08-24T10:24:04;97917.41;;;31.35;57.09
70921;BME280;58572;48.110;19.838;2023-08-24T10:26:34;97931.16;;;31.56;57.33
70921;BME280;58572;48.110;19.838;2023-08-24T10:29:16;97941.06;;;30.55;56.47
70921;BME280;58572;48.110;19.838;2023-08-24T10:31:50;97933.34;;;29.41;54.42
70921;BME280;58572;48.110;19.838;2023-08-24T10:34:22;97930.59;;;30.07;58.59
70921;BME280;58572;48.110;19.838;2023-08-24T10:36:53;97933.25;;;29.66;60.10
70921;BME280;58572;48.110;19.838;2023-08-24T10:39:30;97940.16;;;29.37;60.34
70921;BME280;58572;48.110;19.838;2023-08-24T10:42:12;97936.25;;;29.09;61.07
70921;BME280;58572;48.110;19.838;2023-08-24T10:44:51;97925.53;;;28.54;62.72
70921;BME280;58572;48.110;19.838;2023-08-24T10:47:28;97925.50;;;28.08;65.90
70921;BME280;58572;48.110;19.838;2023-08-24T10:49:59;97918.28;;;28.82;63.37
70921;BME280;58572;48.110;19.838;2023-08-24T10:52:36;97925.50;;;28.08;64.29
70921;BME280;58572;48.110;19.838;2023-08-24T10:55:24;97919.94;;;28.22;65.47
70921;BME280;58572;48.110;19.838;2023-08-24T10:58:04;97914.38;;;28.29;64.04
70921;BME280;58572;48.110;19.838;2023-08-24T11:00:41;97915.13;;;30.40;61.64
70921;BME280;58572;48.110;19.838;2023-08-24T11:03:33;97912.19;;;30.55;59.66
70921;BME280;58572;48.110;19.838;2023-08-24T11:06:26;97918.78;;;29.71;57.70
70921;BME280;58572;48.110;19.838;2023-08-24T11:09:08;97911.75;;;30.08;57.37
70921;BME280;58572;48.110;19.838;2023-08-24T11:11:57;97914.16;;;29.36;53.80
70921;BME280;58572;48.110;19.838;2023-08-24T11:14:30;97914.31;;;30.43;57.10
70921;BME280;58572;48.110;19.838;2023-08-24T11:17:20;97907.03;;;30.91;57.70
70921;BME280;58572;48.110;19.838;2023-08-24T11:19:53;97923.47;;;31.30;58.30
70921;BME280;58572;48.110;19.838;2023-08-24T11:22:25;97904.84;;;32.74;53.69
70921;BME280;58572;48.110;19.838;2023-08-24T11:24:52;97901.16;;;31.12;56.82
70921;BME280;58572;48.110;19.838;2023-08-24T11:27:20;97900.66;;;30.87;54.78
70921;BME280;58572;48.110;19.838;2023-08-24T11:29:58;97895.50;;;32.07;55.49
70921;BME280;58572;48.110;19.838;2023-08-24T11:32:26;97892.47;;;31.37;57.60
70921;BME280;58572;48.110;19.838;2023-08-24T11:34:54;97898.91;;;31.95;54.57
70921;BME280;58572;48.110;19.838;2023-08-24T11:37:21;97904.81;;;33.17;53.22
70921;BME280;58572;48.110;19.838;2023-08-24T11:39:49;97900.03;;;32.51;47.76
70921;BME280;58572;48.110;19.838;2023-08-24T11:42:16;97895.22;;;31.06;55.82
70921;BME280;58572;48.110;19.838;2023-08-24T11:44:46;97890.53;;;31.61;59.13
70921;BME280;58572;48.110;19.838;2023-08-24T11:47:13;97886.72;;;32.75;51.53
70921;BME280;58572;48.110;19.838;2023-08-24T11:49:42;97893.47;;;32.81;51.35
70921;BME280;58572;48.110;19.838;2023-08-24T11:52:09;97894.34;;;32.78;51.31
70921;BME280;58572;48.110;19.838;2023-08-24T11:54:36;97874.19;;;33.19;51.83
70921;BME280;58572;48.110;19.838;2023-08-24T11:57:06;97883.50;;;32.96;51.50
70921;BME280;58572;48.110;19.838;2023-08-24T11:59:34;97890.94;;;31.90;53.57
70921;BME280;58572;48.110;19.838;2023-08-24T12:02:02;97892.94;;;31.62;52.35
70921;BME280;58572;48.110;19.838;2023-08-24T12:04:38;97883.44;;;30.85;54.27
70921;BME280;58572;48.110;19.838;2023-08-24T12:07:10;97895.88;;;30.42;58.95
70921;BME280;58572;48.110;19.838;2023-08-24T12:09:38;97898.31;;;30.37;58.88
70921;BME280;58572;48.110;19.838;2023-08-24T12:12:05;97901.34;;;29.39;61.23
70921;BME280;58572;48.110;19.838;2023-08-24T12:14:40;97903.16;;;28.65;64.11
70921;BME280;58572;48.110;19.838;2023-08-24T12:17:07;97897.91;;;27.64;67.56
70921;BME280;58572;48.110;19.838;2023-08-24T12:19:35;97894.84;;;27.03;70.71
70921;BME280;58572;48.110;19.838;2023-08-24T12:22:03;97895.16;;;28.03;67.27
70921;BME280;58572;48.110;19.838;2023-08-24T12:24:32;97882.69;;;29.80;61.04
70921;BME280;58572;48.110;19.838;2023-08-24T12:26:59;97885.13;;;28.77;63.21
70921;BME280;58572;48.110;19.838;2023-08-24T12:29:29;97880.31;;;28.91;61.51
70921;BME280;58572;48.110;19.838;2023-08-24T12:31:57;97875.75;;;30.03;59.38
70921;BME280;58572;48.110;19.838;2023-08-24T12:34:24;97874.03;;;29.61;57.64
70921;BME280;58572;48.110;19.838;2023-08-24T12:36:51;97871.53;;;29.77;57.75
70921;BME280;58572;48.110;19.838;2023-08-24T12:39:18;97872.81;;;28.42;64.35
70921;BME280;58572;48.110;19.838;2023-08-24T12:41:47;97862.41;;;27.89;65.08
70921;BME280;58572;48.110;19.838;2023-08-24T12:44:14;97860.41;;;27.97;65.64
70921;BME280;58572;48.110;19.838;2023-08-24T12:46:41;97859.03;;;29.12;64.79
70921;BME280;58572;48.110;19.838;2023-08-24T12:49:09;97846.97;;;29.29;58.41
70921;BME280;58572;48.110;19.838;2023-08-24T12:51:36;97847.84;;;29.12;60.36
70921;BME280;58572;48.110;19.838;2023-08-24T12:54:05;97846.03;;;29.57;51.33
70921;BME280;58572;48.110;19.838;2023-08-24T12:56:32;97854.91;;;29.41;59.46
70921;BME280;58572;48.110;19.838;2023-08-24T12:59:02;97839.97;;;30.21;57.31
70921;BME280;58572;48.110;19.838;2023-08-24T13:01:29;97833.63;;;30.55;55.06